createdAt,value
2017-11-13T00:01:05.367Z,0
2017-11-13T00:02:13.988Z,0
2017-11-13T00:03:22.604Z,0
2017-11-13T00:04:31.234Z,0
2017-11-13T00:05:39.854Z,0
2017-11-13T00:06:48.474Z,0
2017-11-13T00:07:57.098Z,0
2017-11-13T00:09:05.723Z,0
2017-11-13T00:10:14.336Z,0
2017-11-13T00:11:22.958Z,0
2017-11-13T00:12:31.575Z,0
2017-11-13T00:13:40.203Z,0
2017-11-13T00:14:48.822Z,0
2017-11-13T00:15:57.441Z,0
2017-11-13T00:17:06.061Z,0
2017-11-13T00:18:14.675Z,0
2017-11-13T00:19:23.303Z,0
2017-11-13T00:20:31.920Z,0
2017-11-13T00:21:40.537Z,0
2017-11-13T00:22:49.168Z,0
2017-11-13T00:23:57.787Z,0
2017-11-13T00:25:06.406Z,0
2017-11-13T00:26:15.024Z,0
2017-11-13T00:27:23.640Z,0
2017-11-13T00:28:32.275Z,0
2017-11-13T00:29:40.888Z,0
2017-11-13T00:30:49.507Z,0
2017-11-13T00:31:58.135Z,0
2017-11-13T00:33:06.754Z,0
2017-11-13T00:34:15.711Z,0
2017-11-13T00:35:24.332Z,0
2017-11-13T00:36:32.960Z,0
2017-11-13T00:37:41.579Z,0
2017-11-13T00:38:50.198Z,0
2017-11-13T00:39:58.817Z,0
2017-11-13T00:41:07.448Z,0
2017-11-13T00:42:16.066Z,0
2017-11-13T00:43:24.682Z,0
2017-11-13T00:44:33.305Z,0
2017-11-13T00:45:41.925Z,0
2017-11-13T00:46:50.541Z,0
2017-11-13T00:47:59.163Z,0
2017-11-13T00:49:07.788Z,0
2017-11-13T00:50:16.404Z,0
2017-11-13T00:51:25.027Z,0
2017-11-13T00:52:33.649Z,0
2017-11-13T00:53:42.268Z,0
2017-11-13T00:54:50.897Z,0
2017-11-13T00:55:59.511Z,0
2017-11-13T00:57:08.133Z,0
2017-11-13T00:58:16.756Z,0
2017-11-13T00:59:25.375Z,0
2017-11-13T01:00:33.993Z,0
2017-11-13T01:01:42.623Z,0
2017-11-13T01:02:51.234Z,0
2017-11-13T01:03:59.851Z,0
2017-11-13T01:05:08.477Z,0
2017-11-13T01:06:17.097Z,0
2017-11-13T01:07:25.717Z,0
2017-11-13T01:08:34.344Z,0
2017-11-13T01:09:42.959Z,0
2017-11-13T01:10:51.581Z,0
2017-11-13T01:12:00.199Z,0
2017-11-13T01:13:08.818Z,0
2017-11-13T01:14:17.444Z,0
2017-11-13T01:15:26.064Z,0
2017-11-13T01:16:34.686Z,0
2017-11-13T01:17:43.301Z,0
2017-11-13T01:18:51.926Z,0
2017-11-13T01:20:00.892Z,0
2017-11-13T01:21:09.510Z,0
2017-11-13T01:22:18.126Z,0
2017-11-13T01:23:26.755Z,0
2017-11-13T01:24:35.372Z,0
2017-11-13T01:25:44.329Z,0
2017-11-13T01:26:52.941Z,0
2017-11-13T01:28:01.563Z,0
2017-11-13T01:29:10.516Z,0
2017-11-13T01:30:19.136Z,0
2017-11-13T01:31:27.754Z,0
2017-11-13T01:32:36.713Z,0
2017-11-13T01:33:45.331Z,0
2017-11-13T01:34:53.952Z,0
2017-11-13T01:36:02.578Z,0
2017-11-13T01:37:11.196Z,0
2017-11-13T01:38:19.814Z,0
2017-11-13T01:39:28.432Z,0
2017-11-13T01:40:37.046Z,0
2017-11-13T01:41:45.675Z,0
2017-11-13T01:42:54.290Z,0
2017-11-13T01:44:02.913Z,0
2017-11-13T01:45:11.538Z,0
2017-11-13T01:46:20.151Z,0
2017-11-13T01:47:28.772Z,0
2017-11-13T01:48:37.391Z,0
2017-11-13T01:49:46.011Z,0
2017-11-13T01:50:54.635Z,0
2017-11-13T01:52:03.250Z,0
2017-11-13T01:53:11.871Z,0
2017-11-13T01:54:20.489Z,0
2017-11-13T01:55:29.114Z,0
2017-11-13T01:56:37.735Z,0
2017-11-13T01:57:46.355Z,0
2017-11-13T01:58:54.972Z,0
2017-11-13T02:00:03.605Z,0
2017-11-13T02:01:12.553Z,0
2017-11-13T02:02:21.510Z,0
2017-11-13T02:03:30.123Z,0
2017-11-13T02:04:38.739Z,0
2017-11-13T02:05:47.360Z,0
2017-11-13T02:06:55.982Z,0
2017-11-13T02:08:04.922Z,0
2017-11-13T02:09:13.548Z,0
2017-11-13T02:10:22.166Z,0
2017-11-13T02:11:30.784Z,0
2017-11-13T02:12:39.415Z,0
2017-11-13T02:13:48.041Z,0
2017-11-13T02:14:56.651Z,0
2017-11-13T02:16:05.268Z,0
2017-11-13T02:17:13.886Z,0
2017-11-13T02:18:22.533Z,0
2017-11-13T02:19:31.128Z,0
2017-11-13T02:20:39.749Z,0
2017-11-13T02:21:48.372Z,0
2017-11-13T02:22:56.985Z,0
2017-11-13T02:24:05.612Z,0
2017-11-13T02:25:14.233Z,0
2017-11-13T02:26:22.848Z,0
2017-11-13T02:27:31.476Z,0
2017-11-13T02:28:40.095Z,0
2017-11-13T02:29:48.709Z,0
2017-11-13T02:30:57.339Z,0
2017-11-13T02:32:05.964Z,0
2017-11-13T02:33:14.573Z,0
2017-11-13T02:34:23.196Z,0
2017-11-13T02:35:31.820Z,0
2017-11-13T02:36:40.436Z,0
2017-11-13T02:37:49.054Z,0
2017-11-13T02:38:57.672Z,0
2017-11-13T02:40:06.301Z,0
2017-11-13T02:41:14.924Z,0
2017-11-13T02:42:23.870Z,0
2017-11-13T02:43:32.495Z,0
2017-11-13T02:44:41.120Z,0
2017-11-13T02:45:49.740Z,0
2017-11-13T02:46:58.359Z,0
2017-11-13T02:48:07.310Z,0
2017-11-13T02:49:15.926Z,0
2017-11-13T02:50:24.549Z,0
2017-11-13T02:51:33.170Z,0
2017-11-13T02:52:41.791Z,0
2017-11-13T02:53:50.745Z,0
2017-11-13T02:54:59.359Z,0
2017-11-13T02:56:07.979Z,0
2017-11-13T02:57:16.601Z,0
2017-11-13T02:58:25.216Z,0
2017-11-13T02:59:33.835Z,0
2017-11-13T03:00:42.468Z,0
2017-11-13T03:01:51.073Z,0
2017-11-13T03:02:59.690Z,0
2017-11-13T03:04:08.318Z,0
2017-11-13T03:05:16.934Z,0
2017-11-13T03:06:25.559Z,0
2017-11-13T03:07:34.180Z,0
2017-11-13T03:08:42.804Z,0
2017-11-13T03:09:51.424Z,0
2017-11-13T03:11:00.042Z,0
2017-11-13T03:12:08.660Z,0
2017-11-13T03:13:17.626Z,0
2017-11-13T03:14:26.244Z,0
2017-11-13T03:15:34.866Z,0
2017-11-13T03:16:43.479Z,0
2017-11-13T03:17:52.105Z,0
2017-11-13T03:19:01.076Z,0
2017-11-13T03:20:09.696Z,0
2017-11-13T03:21:18.319Z,0
2017-11-13T03:22:26.931Z,0
2017-11-13T03:23:35.550Z,0
2017-11-13T03:24:44.173Z,0
2017-11-13T03:25:52.786Z,0
2017-11-13T03:27:01.408Z,0
2017-11-13T03:28:10.035Z,0
2017-11-13T03:29:18.647Z,0
2017-11-13T03:30:27.271Z,0
2017-11-13T03:31:35.900Z,0
2017-11-13T03:32:44.516Z,0
2017-11-13T03:33:53.133Z,0
2017-11-13T03:35:01.759Z,0
2017-11-13T03:36:10.380Z,0
2017-11-13T03:37:19.002Z,0
2017-11-13T03:38:27.623Z,0
2017-11-13T03:39:36.242Z,0
2017-11-13T03:40:44.868Z,0
2017-11-13T03:41:53.484Z,0
2017-11-13T03:43:02.110Z,0
2017-11-13T03:44:10.730Z,0
2017-11-13T03:45:19.349Z,0
2017-11-13T03:46:27.970Z,0
2017-11-13T03:47:36.591Z,0
2017-11-13T03:48:45.212Z,0
2017-11-13T03:49:53.826Z,0
2017-11-13T03:51:02.456Z,0
2017-11-13T03:52:11.066Z,0
2017-11-13T03:53:19.689Z,0
2017-11-13T03:54:28.312Z,0
2017-11-13T03:55:36.928Z,0
2017-11-13T03:56:45.551Z,0
2017-11-13T03:57:54.173Z,0
2017-11-13T03:59:02.794Z,0
2017-11-13T04:00:11.416Z,0
2017-11-13T04:01:20.384Z,0
2017-11-13T04:02:28.996Z,0
2017-11-13T04:03:37.621Z,0
2017-11-13T04:04:46.242Z,0
2017-11-13T04:05:54.867Z,0
2017-11-13T04:07:03.491Z,0
2017-11-13T04:08:12.100Z,0
2017-11-13T04:09:20.721Z,0
2017-11-13T04:10:29.346Z,0
2017-11-13T04:11:37.957Z,0
2017-11-13T04:12:46.585Z,0
2017-11-13T04:13:55.203Z,0
2017-11-13T04:15:03.827Z,0
2017-11-13T04:16:12.447Z,0
2017-11-13T04:17:21.068Z,0
2017-11-13T04:18:29.683Z,0
2017-11-13T04:19:38.305Z,0
2017-11-13T04:20:46.930Z,0
2017-11-13T04:21:55.550Z,0
2017-11-13T04:23:04.167Z,0
2017-11-13T04:24:12.791Z,0
2017-11-13T04:25:21.412Z,0
2017-11-13T04:26:30.356Z,0
2017-11-13T04:27:38.981Z,0
2017-11-13T04:28:47.608Z,0
2017-11-13T04:29:56.219Z,0
2017-11-13T04:31:04.842Z,0
2017-11-13T04:32:13.468Z,0
2017-11-13T04:33:22.089Z,0
2017-11-13T04:34:30.719Z,0
2017-11-13T04:35:39.328Z,0
2017-11-13T04:36:47.946Z,0
2017-11-13T04:37:56.569Z,0
2017-11-13T04:39:05.183Z,0
2017-11-13T04:40:13.807Z,0
2017-11-13T04:41:22.428Z,0
2017-11-13T04:42:31.050Z,0
2017-11-13T04:43:40.004Z,0
2017-11-13T04:44:48.630Z,0
2017-11-13T04:45:57.253Z,0
2017-11-13T04:47:05.867Z,0
2017-11-13T04:48:14.497Z,0
2017-11-13T04:49:23.113Z,0
2017-11-13T04:50:32.063Z,0
2017-11-13T04:51:40.678Z,0
2017-11-13T04:52:49.295Z,0
2017-11-13T04:53:57.925Z,0
2017-11-13T04:55:06.545Z,0
2017-11-13T04:56:15.163Z,0
2017-11-13T04:57:23.790Z,0
2017-11-13T04:58:32.410Z,0
2017-11-13T04:59:41.036Z,0
2017-11-13T05:00:49.656Z,0
2017-11-13T05:01:58.279Z,0
2017-11-13T05:03:06.893Z,0
2017-11-13T05:04:15.512Z,0
2017-11-13T05:05:24.132Z,0
2017-11-13T05:06:32.756Z,0
2017-11-13T05:07:41.373Z,0
2017-11-13T05:08:49.988Z,0
2017-11-13T05:09:58.611Z,0
2017-11-13T05:11:07.226Z,0
2017-11-13T05:12:15.853Z,0
2017-11-13T05:13:24.469Z,0
2017-11-13T05:14:33.088Z,0
2017-11-13T05:15:41.714Z,0
2017-11-13T05:16:50.682Z,0
2017-11-13T05:17:59.295Z,0
2017-11-13T05:19:07.926Z,0
2017-11-13T05:20:16.537Z,0
2017-11-13T05:21:26.192Z,0
2017-11-13T05:22:35.146Z,0
2017-11-13T05:23:43.765Z,0
2017-11-13T05:24:52.395Z,0
2017-11-13T05:26:01.011Z,0
2017-11-13T05:27:09.628Z,0
2017-11-13T05:28:18.256Z,0
2017-11-13T05:29:27.226Z,0
2017-11-13T05:30:35.842Z,0
2017-11-13T05:31:44.466Z,0
2017-11-13T05:32:53.421Z,0
2017-11-13T05:34:02.048Z,0
2017-11-13T05:35:11.007Z,0
2017-11-13T05:36:19.619Z,0
2017-11-13T05:37:28.243Z,0
2017-11-13T05:38:36.868Z,0
2017-11-13T05:39:45.481Z,0
2017-11-13T05:40:54.109Z,0
2017-11-13T05:42:02.727Z,0
2017-11-13T05:43:11.355Z,0
2017-11-13T05:44:19.973Z,0
2017-11-13T05:45:28.592Z,0
2017-11-13T05:46:37.217Z,0
2017-11-13T05:47:45.831Z,0
2017-11-13T05:48:54.458Z,0
2017-11-13T05:50:03.074Z,0
2017-11-13T05:51:12.031Z,0
2017-11-13T05:52:20.666Z,0
2017-11-13T05:53:29.284Z,0
2017-11-13T05:54:38.232Z,0
2017-11-13T05:55:46.852Z,0
2017-11-13T05:56:55.476Z,0
2017-11-13T05:58:04.088Z,0
2017-11-13T05:59:12.710Z,0
2017-11-13T06:00:21.328Z,0
2017-11-13T06:01:29.943Z,0
2017-11-13T06:02:38.571Z,0
2017-11-13T06:03:47.186Z,0
2017-11-13T06:04:55.808Z,0
2017-11-13T06:06:04.429Z,0
2017-11-13T06:07:13.043Z,0
2017-11-13T06:08:21.665Z,0
2017-11-13T06:09:30.285Z,0
2017-11-13T06:10:38.912Z,0
2017-11-13T06:11:47.527Z,0
2017-11-13T06:12:56.145Z,0
2017-11-13T06:14:05.105Z,4
2017-11-13T06:15:13.732Z,4
2017-11-13T06:16:22.347Z,4
2017-11-13T06:17:30.971Z,4
2017-11-13T06:18:39.595Z,4
2017-11-13T06:19:48.213Z,4
2017-11-13T06:20:56.829Z,4
2017-11-13T06:22:05.447Z,4
2017-11-13T06:23:14.071Z,8
2017-11-13T06:24:22.696Z,4
2017-11-13T06:25:31.308Z,8
2017-11-13T06:26:40.264Z,12
2017-11-13T06:27:48.887Z,12
2017-11-13T06:28:57.835Z,12
2017-11-13T06:30:06.457Z,16
2017-11-13T06:31:15.081Z,16
2017-11-13T06:32:24.039Z,20
2017-11-13T06:33:32.668Z,28
2017-11-13T06:34:41.280Z,28
2017-11-13T06:35:49.903Z,32
2017-11-13T06:36:58.524Z,40
2017-11-13T06:38:07.145Z,44
2017-11-13T06:39:15.759Z,48
2017-11-13T06:40:24.386Z,56
2017-11-13T06:41:33.004Z,64
2017-11-13T06:42:41.622Z,72
2017-11-13T06:43:50.247Z,80
2017-11-13T06:44:58.864Z,88
2017-11-13T06:46:07.488Z,100
2017-11-13T06:47:16.103Z,108
2017-11-13T06:48:24.725Z,120
2017-11-13T06:49:33.347Z,132
2017-11-13T06:50:41.967Z,144
2017-11-13T06:51:50.583Z,156
2017-11-13T06:52:59.211Z,168
2017-11-13T06:54:08.186Z,180
2017-11-13T06:55:16.806Z,196
2017-11-13T06:56:25.432Z,208
2017-11-13T06:57:34.051Z,224
2017-11-13T06:58:42.668Z,236
2017-11-13T06:59:51.294Z,252
2017-11-13T07:00:59.910Z,268
2017-11-13T07:02:08.867Z,284
2017-11-13T07:03:17.824Z,304
2017-11-13T07:04:26.441Z,320
2017-11-13T07:05:35.068Z,336
2017-11-13T07:06:43.684Z,356
2017-11-13T07:07:52.301Z,372
2017-11-13T07:09:00.915Z,392
2017-11-13T07:10:09.535Z,412
2017-11-13T07:11:18.166Z,428
2017-11-13T07:12:26.782Z,448
2017-11-13T07:13:35.397Z,460
2017-11-13T07:14:44.032Z,476
2017-11-13T07:15:52.638Z,512
2017-11-13T07:17:01.261Z,560
2017-11-13T07:18:09.880Z,608
2017-11-13T07:19:18.498Z,612
2017-11-13T07:20:27.131Z,584
2017-11-13T07:21:36.084Z,572
2017-11-13T07:22:44.702Z,572
2017-11-13T07:23:53.334Z,584
2017-11-13T07:25:01.957Z,600
2017-11-13T07:26:10.567Z,608
2017-11-13T07:27:19.189Z,628
2017-11-13T07:28:27.815Z,648
2017-11-13T07:29:36.435Z,668
2017-11-13T07:30:45.061Z,688
2017-11-13T07:31:53.679Z,696
2017-11-13T07:33:02.305Z,720
2017-11-13T07:34:10.925Z,736
2017-11-13T07:35:19.878Z,800
2017-11-13T07:36:28.500Z,804
2017-11-13T07:37:37.122Z,832
2017-11-13T07:38:45.732Z,836
2017-11-13T07:39:54.350Z,812
2017-11-13T07:41:02.978Z,804
2017-11-13T07:42:11.589Z,832
2017-11-13T07:43:20.212Z,800
2017-11-13T07:44:28.832Z,804
2017-11-13T07:45:37.456Z,812
2017-11-13T07:46:46.079Z,832
2017-11-13T07:47:54.695Z,852
2017-11-13T07:49:03.317Z,872
2017-11-13T07:50:11.941Z,888
2017-11-13T07:51:20.556Z,900
2017-11-13T07:52:29.179Z,924
2017-11-13T07:53:37.802Z,940
2017-11-13T07:54:46.422Z,940
2017-11-13T07:55:55.041Z,952
2017-11-13T07:57:03.668Z,1032
2017-11-13T07:58:12.285Z,1108
2017-11-13T07:59:21.103Z,1124
2017-11-13T08:00:29.717Z,1144
2017-11-13T08:01:38.345Z,1156
2017-11-13T08:02:46.966Z,1104
2017-11-13T08:03:55.587Z,1140
2017-11-13T08:05:04.205Z,1064
2017-11-13T08:06:12.833Z,1164
2017-11-13T08:07:21.456Z,1232
2017-11-13T08:08:30.076Z,1216
2017-11-13T08:09:38.690Z,1100
2017-11-13T08:10:47.317Z,1064
2017-11-13T08:11:55.940Z,1064
2017-11-13T08:13:04.560Z,1052
2017-11-13T08:14:13.190Z,1068
2017-11-13T08:15:21.807Z,1112
2017-11-13T08:16:30.431Z,1188
2017-11-13T08:17:39.055Z,1308
2017-11-13T08:18:47.669Z,1488
2017-11-13T08:19:56.295Z,1644
2017-11-13T08:21:04.919Z,1516
2017-11-13T08:22:13.542Z,1280
2017-11-13T08:23:22.163Z,1120
2017-11-13T08:24:30.796Z,1136
2017-11-13T08:25:39.414Z,1240
2017-11-13T08:26:48.046Z,1404
2017-11-13T08:27:56.991Z,1488
2017-11-13T08:29:05.605Z,1468
2017-11-13T08:30:14.238Z,1532
2017-11-13T08:31:22.854Z,1632
2017-11-13T08:32:31.476Z,1772
2017-11-13T08:33:40.099Z,2148
2017-11-13T08:34:48.713Z,2568
2017-11-13T08:35:57.337Z,2872
2017-11-13T08:37:06.295Z,2832
2017-11-13T08:38:14.922Z,2568
2017-11-13T08:39:23.533Z,2324
2017-11-13T08:40:32.162Z,2236
2017-11-13T08:41:41.131Z,2076
2017-11-13T08:42:49.731Z,1768
2017-11-13T08:43:58.353Z,1508
2017-11-13T08:45:06.974Z,1296
2017-11-13T08:46:15.602Z,1232
2017-11-13T08:47:24.232Z,1284
2017-11-13T08:48:32.842Z,1204
2017-11-13T08:49:42.127Z,1224
2017-11-13T08:50:50.753Z,1248
2017-11-13T08:51:59.367Z,1296
2017-11-13T08:53:07.992Z,1400
2017-11-13T08:54:16.997Z,1576
2017-11-13T08:55:25.610Z,1816
2017-11-13T08:56:34.239Z,2084
2017-11-13T08:57:42.861Z,2320
2017-11-13T08:58:51.491Z,2372
2017-11-13T09:00:00.447Z,2404
2017-11-13T09:01:09.064Z,2252
2017-11-13T09:02:17.687Z,1848
2017-11-13T09:03:26.312Z,1508
2017-11-13T09:04:34.929Z,1324
2017-11-13T09:05:43.556Z,1256
2017-11-13T09:06:52.177Z,1260
2017-11-13T09:08:00.803Z,1300
2017-11-13T09:09:09.766Z,1352
2017-11-13T09:10:18.384Z,1396
2017-11-13T09:11:27.003Z,1384
2017-11-13T09:12:35.633Z,1376
2017-11-13T09:13:44.256Z,1408
2017-11-13T09:14:52.878Z,1476
2017-11-13T09:16:01.499Z,1536
2017-11-13T09:17:10.132Z,1424
2017-11-13T09:18:18.753Z,1408
2017-11-13T09:19:27.696Z,1440
2017-11-13T09:20:36.321Z,1496
2017-11-13T09:21:44.944Z,1852
2017-11-13T09:22:53.561Z,2152
2017-11-13T09:24:02.210Z,2216
2017-11-13T09:25:10.805Z,2292
2017-11-13T09:26:19.426Z,2392
2017-11-13T09:27:28.052Z,2496
2017-11-13T09:28:36.672Z,2492
2017-11-13T09:29:45.296Z,2544
2017-11-13T09:30:53.922Z,2632
2017-11-13T09:32:02.538Z,2744
2017-11-13T09:33:11.522Z,2140
2017-11-13T09:34:20.152Z,2312
2017-11-13T09:35:28.757Z,2584
2017-11-13T09:36:37.381Z,2548
2017-11-13T09:37:46.001Z,2132
2017-11-13T09:38:54.627Z,2100
2017-11-13T09:40:03.329Z,2400
2017-11-13T09:41:11.999Z,2624
2017-11-13T09:42:20.697Z,2680
2017-11-13T09:43:29.390Z,2524
2017-11-13T09:44:38.087Z,1944
2017-11-13T09:45:47.132Z,1848
2017-11-13T09:46:55.804Z,1764
2017-11-13T09:48:04.490Z,1796
2017-11-13T09:49:13.181Z,1784
2017-11-13T09:50:21.867Z,2024
2017-11-13T09:51:30.555Z,2156
2017-11-13T09:52:39.250Z,2312
2017-11-13T09:53:47.929Z,1856
2017-11-13T09:54:56.611Z,1892
2017-11-13T09:56:05.649Z,2020
2017-11-13T09:57:14.334Z,2452
2017-11-13T09:58:23.020Z,2584
2017-11-13T09:59:31.711Z,2780
2017-11-13T10:00:40.401Z,3052
2017-11-13T10:01:49.099Z,3292
2017-11-13T10:02:57.786Z,3488
2017-11-13T10:04:06.488Z,3116
2017-11-13T10:05:15.180Z,2936
2017-11-13T10:06:23.870Z,3152
2017-11-13T10:07:32.565Z,2924
2017-11-13T10:08:41.580Z,2668
2017-11-13T10:09:50.265Z,2496
2017-11-13T10:10:58.956Z,2412
2017-11-13T10:12:07.652Z,2376
2017-11-13T10:13:16.337Z,2268
2017-11-13T10:14:25.009Z,2152
2017-11-13T10:15:33.701Z,1928
2017-11-13T10:16:43.072Z,1712
2017-11-13T10:17:51.768Z,1568
2017-11-13T10:19:00.450Z,1480
2017-11-13T10:20:09.142Z,1456
2017-11-13T10:21:17.828Z,1476
2017-11-13T10:22:26.838Z,1520
2017-11-13T10:23:35.886Z,1552
2017-11-13T10:24:44.575Z,1628
2017-11-13T10:25:53.274Z,1712
2017-11-13T10:27:01.952Z,2332
2017-11-13T10:28:10.648Z,2240
2017-11-13T10:29:19.336Z,2364
2017-11-13T10:30:28.028Z,2368
2017-11-13T10:31:36.701Z,2368
2017-11-13T10:32:45.399Z,2364
2017-11-13T10:33:54.087Z,2312
2017-11-13T10:35:02.790Z,2376
2017-11-13T10:36:11.824Z,1936
2017-11-13T10:37:20.508Z,2072
2017-11-13T10:38:29.189Z,2148
2017-11-13T10:39:37.880Z,2176
2017-11-13T10:40:46.557Z,2100
2017-11-13T10:41:55.253Z,2252
2017-11-13T10:43:03.931Z,2168
2017-11-13T10:44:12.626Z,2108
2017-11-13T10:45:21.335Z,2308
2017-11-13T10:46:30.028Z,2448
2017-11-13T10:47:38.711Z,2432
2017-11-13T10:48:48.095Z,2408
2017-11-13T10:49:56.784Z,2392
2017-11-13T10:51:05.466Z,2404
2017-11-13T10:52:14.158Z,2396
2017-11-13T10:53:22.858Z,2400
2017-11-13T10:54:31.544Z,2400
2017-11-13T10:55:40.244Z,2000
2017-11-13T10:56:48.933Z,1988
2017-11-13T10:57:57.618Z,2396
2017-11-13T10:59:06.323Z,2364
2017-11-13T11:00:15.006Z,2392
2017-11-13T11:01:23.701Z,2404
2017-11-13T11:02:32.395Z,2412
2017-11-13T11:03:41.107Z,2412
2017-11-13T11:04:49.792Z,2424
2017-11-13T11:05:58.484Z,2436
2017-11-13T11:07:07.182Z,2428
2017-11-13T11:08:15.866Z,2436
2017-11-13T11:09:24.558Z,2420
2017-11-13T11:10:33.257Z,2412
2017-11-13T11:11:41.957Z,2412
2017-11-13T11:12:50.658Z,2416
2017-11-13T11:13:59.355Z,2432
2017-11-13T11:15:08.045Z,2444
2017-11-13T11:16:16.745Z,2456
2017-11-13T11:17:25.436Z,2476
2017-11-13T11:18:34.121Z,2440
2017-11-13T11:19:42.822Z,2416
2017-11-13T11:20:51.861Z,2420
2017-11-13T11:22:00.551Z,2408
2017-11-13T11:23:09.256Z,2420
2017-11-13T11:24:17.952Z,2424
2017-11-13T11:25:26.993Z,2436
2017-11-13T11:26:36.030Z,2424
2017-11-13T11:27:44.722Z,2428
2017-11-13T11:28:53.419Z,2444
2017-11-13T11:30:02.121Z,2448
2017-11-13T11:31:10.831Z,2440
2017-11-13T11:32:19.515Z,2432
2017-11-13T11:33:28.212Z,2428
2017-11-13T11:34:36.905Z,2432
2017-11-13T11:35:45.941Z,2436
2017-11-13T11:36:54.642Z,2436
2017-11-13T11:38:03.341Z,2424
2017-11-13T11:39:12.374Z,2428
2017-11-13T11:40:21.066Z,2428
2017-11-13T11:41:29.764Z,2436
2017-11-13T11:42:38.468Z,2448
2017-11-13T11:43:47.506Z,2444
2017-11-13T11:44:56.203Z,2452
2017-11-13T11:46:04.917Z,2444
2017-11-13T11:47:13.606Z,2448
2017-11-13T11:48:22.317Z,2468
2017-11-13T11:49:31.012Z,2472
2017-11-13T11:50:39.709Z,2468
2017-11-13T11:51:48.405Z,2468
2017-11-13T11:52:57.105Z,2476
2017-11-13T11:54:05.798Z,2492
2017-11-13T11:55:14.502Z,2480
2017-11-13T11:56:23.202Z,2488
2017-11-13T11:57:32.242Z,2516
2017-11-13T11:58:40.947Z,2516
2017-11-13T11:59:49.650Z,2528
2017-11-13T12:00:58.684Z,2528
2017-11-13T12:02:07.382Z,2508
2017-11-13T12:03:16.074Z,2084
2017-11-13T12:04:24.780Z,1844
2017-11-13T12:05:33.476Z,2248
2017-11-13T12:06:42.173Z,2348
2017-11-13T12:07:50.876Z,2452
2017-11-13T12:08:59.576Z,2652
2017-11-13T12:10:08.268Z,2544
2017-11-13T12:11:16.967Z,2664
2017-11-13T12:12:26.005Z,2628
2017-11-13T12:13:34.707Z,2880
2017-11-13T12:14:43.405Z,3512
2017-11-13T12:15:52.097Z,4148
2017-11-13T12:17:00.804Z,4676
2017-11-13T12:18:09.503Z,3836
2017-11-13T12:19:18.194Z,3232
2017-11-13T12:20:26.900Z,2996
2017-11-13T12:21:35.599Z,2756
2017-11-13T12:22:44.625Z,2400
2017-11-13T12:23:53.329Z,2104
2017-11-13T12:25:02.032Z,1936
2017-11-13T12:26:10.731Z,1860
2017-11-13T12:27:19.774Z,1788
2017-11-13T12:28:28.462Z,2076
2017-11-13T12:29:37.158Z,1908
2017-11-13T12:30:45.853Z,1664
2017-11-13T12:31:54.547Z,1632
2017-11-13T12:33:03.247Z,1732
2017-11-13T12:34:11.937Z,1868
2017-11-13T12:35:20.629Z,1816
2017-11-13T12:36:29.326Z,1644
2017-11-13T12:37:38.028Z,1660
2017-11-13T12:38:46.730Z,2236
2017-11-13T12:39:55.439Z,2292
2017-11-13T12:41:04.495Z,2300
2017-11-13T12:42:13.196Z,2308
2017-11-13T12:43:21.899Z,2288
2017-11-13T12:44:30.588Z,2004
2017-11-13T12:45:39.289Z,2332
2017-11-13T12:46:48.329Z,1692
2017-11-13T12:47:57.023Z,2336
2017-11-13T12:49:05.720Z,2336
2017-11-13T12:50:14.422Z,2336
2017-11-13T12:51:23.466Z,2344
2017-11-13T12:52:32.170Z,2420
2017-11-13T12:53:40.861Z,2480
2017-11-13T12:54:49.559Z,2516
2017-11-13T12:55:58.262Z,2576
2017-11-13T12:57:06.955Z,2628
2017-11-13T12:58:15.654Z,2792
2017-11-13T12:59:24.362Z,3028
2017-11-13T13:00:33.055Z,3252
2017-11-13T13:01:41.755Z,3420
2017-11-13T13:02:50.448Z,3328
2017-11-13T13:03:59.152Z,3224
2017-11-13T13:05:07.855Z,2968
2017-11-13T13:06:16.888Z,2832
2017-11-13T13:07:25.593Z,2420
2017-11-13T13:08:34.284Z,2480
2017-11-13T13:09:42.986Z,2280
2017-11-13T13:10:51.684Z,2336
2017-11-13T13:12:00.378Z,2228
2017-11-13T13:13:09.079Z,2208
2017-11-13T13:14:17.781Z,2136
2017-11-13T13:15:26.479Z,2172
2017-11-13T13:16:35.178Z,2204
2017-11-13T13:17:43.887Z,2284
2017-11-13T13:18:52.590Z,2284
2017-11-13T13:20:01.281Z,2184
2017-11-13T13:21:09.986Z,2200
2017-11-13T13:22:19.016Z,1788
2017-11-13T13:23:27.728Z,2040
2017-11-13T13:24:36.418Z,2184
2017-11-13T13:25:45.109Z,2528
2017-11-13T13:26:53.822Z,2640
2017-11-13T13:28:02.864Z,2696
2017-11-13T13:29:11.568Z,2600
2017-11-13T13:30:20.259Z,2476
2017-11-13T13:31:28.959Z,2440
2017-11-13T13:32:38.045Z,2448
2017-11-13T13:33:46.742Z,2208
2017-11-13T13:34:55.437Z,2312
2017-11-13T13:36:04.141Z,2028
2017-11-13T13:37:12.836Z,1816
2017-11-13T13:38:21.539Z,1796
2017-11-13T13:39:30.234Z,1844
2017-11-13T13:40:38.934Z,1840
2017-11-13T13:41:47.647Z,1856
2017-11-13T13:42:56.347Z,1884
2017-11-13T13:44:05.381Z,1960
2017-11-13T13:45:14.090Z,2020
2017-11-13T13:46:22.788Z,2108
2017-11-13T13:47:31.486Z,2196
2017-11-13T13:48:40.189Z,2256
2017-11-13T13:49:48.886Z,2132
2017-11-13T13:50:57.584Z,1944
2017-11-13T13:52:06.282Z,1952
2017-11-13T13:53:14.983Z,2012
2017-11-13T13:54:23.683Z,1884
2017-11-13T13:55:32.382Z,1952
2017-11-13T13:56:41.083Z,1876
2017-11-13T13:57:49.789Z,1784
2017-11-13T13:58:58.480Z,1804
2017-11-13T14:00:07.185Z,1840
2017-11-13T14:01:15.879Z,1900
2017-11-13T14:02:24.579Z,1996
2017-11-13T14:03:33.284Z,1980
2017-11-13T14:04:41.975Z,1776
2017-11-13T14:05:50.676Z,1664
2017-11-13T14:06:59.367Z,1752
2017-11-13T14:08:08.076Z,1596
2017-11-13T14:09:16.769Z,1592
2017-11-13T14:10:25.468Z,1592
2017-11-13T14:11:34.163Z,1520
2017-11-13T14:12:43.213Z,1424
2017-11-13T14:13:51.909Z,1320
2017-11-13T14:15:00.604Z,1260
2017-11-13T14:16:09.308Z,1348
2017-11-13T14:17:18.003Z,1236
2017-11-13T14:18:26.699Z,1284
2017-11-13T14:19:35.411Z,1272
2017-11-13T14:20:44.438Z,1252
2017-11-13T14:21:53.141Z,1232
2017-11-13T14:23:01.836Z,1216
2017-11-13T14:24:10.536Z,1204
2017-11-13T14:25:19.239Z,1188
2017-11-13T14:26:27.937Z,1172
2017-11-13T14:27:36.630Z,1160
2017-11-13T14:28:45.333Z,1140
2017-11-13T14:29:54.033Z,1128
2017-11-13T14:31:02.725Z,1116
2017-11-13T14:32:11.428Z,1104
2017-11-13T14:33:20.124Z,1092
2017-11-13T14:34:28.814Z,1076
2017-11-13T14:35:37.520Z,1052
2017-11-13T14:36:46.213Z,1036
2017-11-13T14:37:54.915Z,1032
2017-11-13T14:39:03.613Z,1024
2017-11-13T14:40:12.304Z,1020
2017-11-13T14:41:21.007Z,1016
2017-11-13T14:42:29.710Z,1012
2017-11-13T14:43:38.412Z,1000
2017-11-13T14:44:47.115Z,984
2017-11-13T14:45:55.814Z,960
2017-11-13T14:47:04.503Z,936
2017-11-13T14:48:13.197Z,924
2017-11-13T14:49:21.902Z,916
2017-11-13T14:50:30.595Z,900
2017-11-13T14:51:39.296Z,880
2017-11-13T14:52:47.987Z,868
2017-11-13T14:53:56.686Z,848
2017-11-13T14:55:05.387Z,828
2017-11-13T14:56:14.079Z,808
2017-11-13T14:57:22.794Z,792
2017-11-13T14:58:31.478Z,780
2017-11-13T14:59:40.515Z,756
2017-11-13T15:00:49.219Z,732
2017-11-13T15:01:57.910Z,700
2017-11-13T15:03:06.607Z,668
2017-11-13T15:04:15.314Z,640
2017-11-13T15:05:23.989Z,620
2017-11-13T15:06:33.009Z,608
2017-11-13T15:07:41.627Z,592
2017-11-13T15:08:50.252Z,580
2017-11-13T15:09:58.881Z,564
2017-11-13T15:11:07.496Z,552
2017-11-13T15:12:16.123Z,540
2017-11-13T15:13:24.750Z,520
2017-11-13T15:14:33.371Z,504
2017-11-13T15:15:42.003Z,492
2017-11-13T15:16:50.632Z,480
2017-11-13T15:17:59.254Z,468
2017-11-13T15:19:08.236Z,460
2017-11-13T15:20:16.853Z,452
2017-11-13T15:21:25.486Z,436
2017-11-13T15:22:34.105Z,420
2017-11-13T15:23:42.726Z,404
2017-11-13T15:24:51.342Z,388
2017-11-13T15:25:59.974Z,372
2017-11-13T15:27:08.593Z,352
2017-11-13T15:28:17.217Z,336
2017-11-13T15:29:25.847Z,312
2017-11-13T15:30:34.466Z,288
2017-11-13T15:31:43.086Z,264
2017-11-13T15:32:51.710Z,248
2017-11-13T15:34:00.661Z,232
2017-11-13T15:35:09.314Z,212
2017-11-13T15:36:17.910Z,196
2017-11-13T15:37:26.864Z,180
2017-11-13T15:38:35.829Z,164
2017-11-13T15:39:44.449Z,152
2017-11-13T15:40:53.080Z,136
2017-11-13T15:42:02.033Z,124
2017-11-13T15:43:10.656Z,112
2017-11-13T15:44:19.274Z,100
2017-11-13T15:45:27.900Z,84
2017-11-13T15:46:36.525Z,76
2017-11-13T15:47:45.149Z,68
2017-11-13T15:48:53.772Z,56
2017-11-13T15:50:02.396Z,48
2017-11-13T15:51:11.019Z,44
2017-11-13T15:52:19.649Z,36
2017-11-13T15:53:28.265Z,32
2017-11-13T15:54:36.892Z,24
2017-11-13T15:55:45.522Z,24
2017-11-13T15:56:54.481Z,20
2017-11-13T15:58:03.103Z,16
2017-11-13T15:59:11.722Z,16
2017-11-13T16:00:20.375Z,12